createdAt,value
2019-02-18T00:01:20.255Z,30.00
2019-02-18T00:03:54.004Z,30.00
2019-02-18T00:06:27.428Z,29.00
2019-02-18T00:09:00.876Z,30.87
2019-02-18T00:11:34.309Z,30.53
2019-02-18T00:14:07.762Z,29.50
2019-02-18T00:16:41.184Z,29.53
2019-02-18T00:19:14.636Z,29.27
2019-02-18T00:21:48.142Z,29.87
2019-02-18T00:24:21.784Z,29.17
2019-02-18T00:26:55.209Z,28.87
2019-02-18T00:29:28.667Z,30.17
2019-02-18T00:32:02.081Z,28.80
2019-02-18T00:34:35.522Z,29.20
2019-02-18T00:37:09.355Z,28.63
2019-02-18T00:39:42.793Z,28.97
2019-02-18T00:42:16.230Z,30.87
2019-02-18T00:44:49.670Z,30.73
2019-02-18T00:47:23.105Z,30.43
2019-02-18T00:49:56.541Z,30.70
2019-02-18T00:52:29.989Z,32.63
2019-02-18T00:55:03.919Z,28.57
2019-02-18T00:57:37.344Z,29.07
2019-02-18T01:00:16.281Z,30.13
2019-02-18T01:02:49.715Z,30.37
2019-02-18T01:05:23.159Z,30.20
2019-02-18T01:07:56.756Z,29.53
2019-02-18T01:10:30.201Z,28.87
2019-02-18T01:13:03.641Z,29.23
2019-02-18T01:15:37.087Z,29.70
2019-02-18T01:18:10.513Z,30.20
2019-02-18T01:20:44.023Z,29.10
2019-02-18T01:23:17.454Z,29.63
2019-02-18T01:25:50.906Z,30.37
2019-02-18T01:28:24.330Z,29.83
2019-02-18T01:30:58.057Z,29.63
2019-02-18T01:33:31.481Z,29.87
2019-02-18T01:36:05.192Z,28.93
2019-02-18T01:38:39.541Z,29.37
2019-02-18T01:41:12.976Z,31.13
2019-02-18T01:43:46.410Z,29.90
2019-02-18T01:46:19.853Z,29.93
2019-02-18T01:48:53.285Z,30.10
2019-02-18T01:51:26.735Z,28.70
2019-02-18T01:54:00.163Z,30.37
2019-02-18T01:56:33.596Z,30.30
2019-02-18T01:59:07.029Z,29.50
2019-02-18T02:01:40.473Z,29.63
2019-02-18T02:04:13.910Z,31.93
2019-02-18T02:06:47.349Z,32.53
2019-02-18T02:09:20.777Z,34.07
2019-02-18T02:11:54.285Z,33.47
2019-02-18T02:14:27.714Z,35.40
2019-02-18T02:17:01.178Z,36.90
2019-02-18T02:19:34.609Z,37.70
2019-02-18T02:22:08.049Z,36.47
2019-02-18T02:24:41.477Z,36.07
2019-02-18T02:27:14.929Z,35.17
2019-02-18T02:29:48.347Z,35.63
2019-02-18T02:32:21.782Z,35.63
2019-02-18T02:34:55.225Z,36.13
2019-02-18T02:37:28.679Z,37.83
2019-02-18T02:40:02.108Z,36.47
2019-02-18T02:42:35.558Z,38.47
2019-02-18T02:45:09.433Z,38.10
2019-02-18T02:47:42.876Z,38.57
2019-02-18T02:50:16.306Z,42.17
2019-02-18T02:52:49.768Z,38.93
2019-02-18T02:55:23.199Z,40.03
2019-02-18T02:57:56.654Z,37.90
2019-02-18T03:00:30.094Z,39.73
2019-02-18T03:03:03.615Z,41.83
2019-02-18T03:05:37.105Z,37.33
2019-02-18T03:08:19.982Z,36.90
2019-02-18T03:10:45.701Z,36.63
2019-02-18T03:13:19.139Z,37.77
2019-02-18T03:15:52.577Z,37.23
2019-02-18T03:18:26.025Z,37.10
2019-02-18T03:20:59.444Z,37.63
2019-02-18T03:23:33.361Z,38.03
2019-02-18T03:26:06.786Z,38.37
2019-02-18T03:28:43.300Z,37.37
2019-02-18T03:31:19.805Z,38.43
2019-02-18T03:33:58.987Z,36.83
2019-02-18T03:36:32.412Z,37.20
2019-02-18T03:39:06.738Z,36.53
2019-02-18T03:41:40.975Z,36.13
2019-02-18T03:44:14.798Z,35.23
2019-02-18T03:46:50.618Z,33.87
2019-02-18T03:49:23.399Z,34.90
2019-02-18T03:51:56.827Z,34.33
2019-02-18T03:54:30.288Z,33.27
2019-02-18T03:57:03.762Z,33.37
2019-02-18T03:59:37.204Z,32.50
2019-02-18T04:02:10.642Z,32.57
2019-02-18T04:04:44.151Z,33.23
2019-02-18T04:07:17.573Z,34.10
2019-02-18T04:09:51.028Z,39.20
2019-02-18T04:12:24.461Z,34.90
2019-02-18T04:14:57.913Z,34.30
2019-02-18T04:17:31.350Z,35.67
2019-02-18T04:20:06.325Z,35.50
2019-02-18T04:22:39.753Z,37.03
2019-02-18T04:25:13.194Z,35.10
2019-02-18T04:27:46.632Z,35.20
2019-02-18T04:30:20.062Z,34.27
2019-02-18T04:32:53.492Z,34.80
2019-02-18T04:35:26.940Z,35.70
2019-02-18T04:38:00.370Z,33.77
2019-02-18T04:40:33.807Z,33.87
2019-02-18T04:43:07.231Z,33.60
2019-02-18T04:45:40.674Z,32.17
2019-02-18T04:48:14.101Z,33.57
2019-02-18T04:50:47.537Z,31.50
2019-02-18T04:53:20.965Z,32.70
2019-02-18T04:55:54.412Z,33.70
2019-02-18T04:58:27.835Z,32.73
2019-02-18T05:01:02.934Z,32.00
2019-02-18T05:03:36.432Z,31.57
2019-02-18T05:06:09.875Z,31.77
2019-02-18T05:08:43.297Z,32.23
2019-02-18T05:11:16.743Z,34.20
2019-02-18T05:13:50.162Z,33.43
2019-02-18T05:16:23.597Z,31.67
2019-02-18T05:18:57.016Z,32.60
2019-02-18T05:21:31.998Z,32.30
2019-02-18T05:24:05.449Z,32.47
2019-02-18T05:26:38.942Z,31.30
2019-02-18T05:29:12.375Z,31.70
2019-02-18T05:31:45.822Z,30.70
2019-02-18T05:34:19.244Z,30.53
2019-02-18T05:36:52.748Z,29.53
2019-02-18T05:39:26.181Z,29.80
2019-02-18T05:41:59.631Z,29.70
2019-02-18T05:44:33.056Z,29.37
2019-02-18T05:47:06.496Z,29.80
2019-02-18T05:49:39.921Z,29.63
2019-02-18T05:52:13.377Z,29.97
2019-02-18T05:54:46.812Z,31.60
2019-02-18T05:57:22.784Z,29.33
2019-02-18T05:59:55.400Z,30.83
2019-02-18T06:02:28.848Z,30.70
2019-02-18T06:05:04.281Z,31.97
2019-02-18T06:07:37.721Z,31.20
2019-02-18T06:10:11.173Z,31.47
2019-02-18T06:12:44.678Z,30.00
2019-02-18T06:15:18.301Z,32.20
2019-02-18T06:17:51.738Z,29.77
2019-02-18T06:20:25.176Z,33.57
2019-02-18T06:22:58.613Z,30.53
2019-02-18T06:25:32.048Z,30.87
2019-02-18T06:28:05.491Z,30.33
2019-02-18T06:30:38.908Z,29.40
2019-02-18T06:33:12.361Z,30.07
2019-02-18T06:35:45.797Z,29.37
2019-02-18T06:38:19.269Z,30.50
2019-02-18T06:40:52.696Z,30.00
2019-02-18T06:43:26.205Z,29.33
2019-02-18T06:46:17.295Z,27.67
2019-02-18T06:48:52.375Z,28.27
2019-02-18T06:51:45.146Z,29.47
2019-02-18T06:54:18.589Z,28.50
2019-02-18T06:56:56.357Z,30.00
2019-02-18T06:59:31.456Z,29.90
2019-02-18T07:02:09.501Z,28.33
2019-02-18T07:04:47.213Z,29.87
2019-02-18T07:07:25.322Z,28.80
2019-02-18T07:10:03.550Z,29.40
2019-02-18T07:12:38.615Z,28.93
2019-02-18T07:15:12.115Z,29.27
2019-02-18T07:17:45.541Z,27.60
2019-02-18T07:20:19.052Z,29.17
2019-02-18T07:22:52.523Z,29.13
2019-02-18T07:25:25.981Z,28.63
2019-02-18T07:27:59.409Z,27.73
2019-02-18T07:30:32.853Z,29.10
2019-02-18T07:33:06.277Z,28.10
2019-02-18T07:35:39.721Z,28.03
2019-02-18T07:38:13.151Z,28.07
2019-02-18T07:40:46.611Z,28.63
2019-02-18T07:43:20.042Z,28.70
2019-02-18T07:45:53.481Z,28.97
2019-02-18T07:48:26.900Z,28.37
2019-02-18T07:51:00.397Z,28.80
2019-02-18T07:53:33.831Z,28.73
2019-02-18T07:56:07.293Z,28.73
2019-02-18T07:58:40.723Z,29.37
2019-02-18T08:01:14.163Z,29.40
2019-02-18T08:03:47.589Z,29.97
2019-02-18T08:06:21.044Z,30.50
2019-02-18T08:08:54.467Z,31.00
2019-02-18T08:11:27.911Z,32.33
2019-02-18T08:14:01.409Z,32.27
2019-02-18T08:16:34.912Z,32.50
2019-02-18T08:19:08.346Z,32.07
2019-02-18T08:21:41.790Z,31.50
2019-02-18T08:24:15.232Z,29.80
2019-02-18T08:26:48.670Z,31.00
2019-02-18T08:29:22.096Z,33.20
2019-02-18T08:31:55.537Z,32.63
2019-02-18T08:34:28.958Z,32.60
2019-02-18T08:37:02.401Z,33.47
2019-02-18T08:39:35.829Z,32.03
2019-02-18T08:42:09.259Z,31.10
2019-02-18T08:44:42.691Z,32.73
2019-02-18T08:47:16.124Z,33.57
2019-02-18T08:49:49.552Z,33.30
2019-02-18T08:52:23.012Z,33.33
2019-02-18T08:54:56.983Z,32.87
2019-02-18T08:57:30.663Z,34.97
2019-02-18T09:00:06.998Z,33.37
2019-02-18T09:02:40.424Z,34.53
2019-02-18T09:05:13.982Z,33.80
2019-02-18T09:07:47.475Z,34.10
2019-02-18T09:10:20.911Z,34.17
2019-02-18T09:12:54.352Z,34.73
2019-02-18T09:15:27.777Z,33.87
2019-02-18T09:18:01.214Z,34.13
2019-02-18T09:20:34.647Z,34.50
2019-02-18T09:23:15.530Z,34.43
2019-02-18T09:25:50.589Z,33.80
2019-02-18T09:28:24.029Z,33.67
2019-02-18T09:30:57.513Z,33.87
2019-02-18T09:33:30.960Z,34.80
2019-02-18T09:36:04.465Z,34.00
2019-02-18T09:38:37.911Z,33.33
2019-02-18T09:41:11.346Z,33.63
2019-02-18T09:43:44.772Z,35.57
2019-02-18T09:46:18.191Z,34.07
2019-02-18T09:48:51.641Z,34.63
2019-02-18T09:51:25.065Z,35.17
2019-02-18T09:53:58.579Z,36.57
2019-02-18T09:56:32.080Z,36.13
2019-02-18T09:59:05.516Z,36.30
2019-02-18T10:01:38.938Z,34.87
2019-02-18T10:04:12.374Z,41.27
2019-02-18T10:06:45.796Z,39.47
2019-02-18T10:09:19.252Z,39.63
2019-02-18T10:11:52.732Z,38.30
2019-02-18T10:14:26.181Z,40.87
2019-02-18T10:16:59.607Z,40.30
2019-02-18T10:19:33.060Z,39.80
2019-02-18T10:22:06.493Z,40.50
2019-02-18T10:24:50.247Z,39.90
2019-02-18T10:27:15.068Z,38.47
2019-02-18T10:29:48.512Z,38.57
2019-02-18T10:32:21.937Z,38.43
2019-02-18T10:34:55.376Z,38.57
2019-02-18T10:37:28.865Z,37.03
2019-02-18T10:40:02.563Z,37.27
2019-02-18T10:42:35.994Z,36.57
2019-02-18T10:45:13.560Z,37.27
2019-02-18T10:47:46.974Z,38.07
2019-02-18T10:50:20.412Z,36.67
2019-02-18T10:52:53.840Z,36.20
2019-02-18T10:55:27.663Z,38.00
2019-02-18T10:58:01.084Z,36.90
2019-02-18T11:00:34.595Z,35.93
2019-02-18T11:03:08.018Z,36.47
2019-02-18T11:05:42.029Z,38.47
2019-02-18T11:08:15.460Z,38.67
2019-02-18T11:10:48.899Z,34.97
2019-02-18T11:13:22.394Z,35.57
2019-02-18T11:15:55.912Z,34.07
2019-02-18T11:18:29.340Z,33.90
2019-02-18T11:21:02.783Z,34.20
2019-02-18T11:23:36.202Z,35.07
2019-02-18T11:26:09.642Z,34.90
2019-02-18T11:28:43.071Z,35.27
2019-02-18T11:31:16.517Z,34.07
2019-02-18T11:33:50.408Z,34.07
2019-02-18T11:36:23.925Z,34.07
2019-02-18T11:38:57.345Z,33.27
2019-02-18T11:41:30.781Z,35.10
2019-02-18T11:44:04.783Z,35.30
2019-02-18T11:46:38.221Z,34.73
2019-02-18T11:49:11.640Z,38.23
2019-02-18T11:51:45.084Z,36.27
2019-02-18T11:54:18.513Z,34.83
2019-02-18T11:56:51.959Z,35.03
2019-02-18T11:59:25.394Z,35.40
2019-02-18T12:01:58.847Z,35.70
2019-02-18T12:04:32.344Z,35.23
2019-02-18T12:07:05.800Z,35.47
2019-02-18T12:09:39.309Z,34.63
2019-02-18T12:12:13.026Z,35.30
2019-02-18T12:14:46.450Z,34.30
2019-02-18T12:17:20.984Z,35.60
2019-02-18T12:19:55.211Z,33.80
2019-02-18T12:22:29.958Z,33.73
2019-02-18T12:25:03.459Z,33.00
2019-02-18T12:27:36.978Z,33.87
2019-02-18T12:30:17.807Z,33.70
2019-02-18T12:32:51.388Z,32.37
2019-02-18T12:35:31.102Z,34.33
2019-02-18T12:38:00.059Z,31.67
2019-02-18T12:40:33.492Z,30.43
2019-02-18T12:43:07.009Z,31.80
2019-02-18T12:45:40.449Z,30.13
2019-02-18T12:48:13.893Z,32.30
2019-02-18T12:50:47.329Z,38.53
2019-02-18T12:53:20.859Z,40.73
2019-02-18T12:55:54.429Z,39.57
2019-02-18T12:58:27.952Z,23.47
2019-02-18T13:01:01.387Z,20.83
2019-02-18T13:03:34.913Z,20.80
2019-02-18T13:06:08.421Z,20.90
2019-02-18T13:08:41.874Z,19.60
2019-02-18T13:11:15.376Z,20.00
2019-02-18T13:13:48.902Z,18.27
2019-02-18T13:16:22.409Z,17.73
2019-02-18T13:18:55.933Z,17.13
2019-02-18T13:21:29.437Z,16.23
2019-02-18T13:24:03.038Z,15.87
2019-02-18T13:26:36.540Z,14.80
2019-02-18T13:29:09.991Z,14.50
2019-02-18T13:31:43.501Z,14.70
2019-02-18T13:34:16.954Z,14.53
2019-02-18T13:36:50.382Z,14.20
2019-02-18T13:39:24.201Z,15.50
2019-02-18T13:41:57.633Z,15.27
2019-02-18T13:44:31.096Z,15.53
2019-02-18T13:47:04.909Z,15.53
2019-02-18T13:49:38.353Z,15.33
2019-02-18T13:52:11.939Z,14.57
2019-02-18T13:54:45.384Z,12.93
2019-02-18T13:57:18.816Z,12.10
2019-02-18T13:59:52.260Z,19.40
2019-02-18T14:02:25.770Z,13.00
2019-02-18T14:04:59.214Z,11.50
2019-02-18T14:07:32.788Z,13.40
2019-02-18T14:10:07.379Z,10.67
2019-02-18T14:12:41.425Z,10.70
2019-02-18T14:15:15.778Z,10.83
2019-02-18T14:17:50.577Z,10.13
2019-02-18T14:20:24.337Z,10.33
2019-02-18T14:22:58.142Z,10.67
2019-02-18T14:25:31.714Z,10.20
2019-02-18T14:28:05.273Z,10.73
2019-02-18T14:30:38.728Z,10.43
2019-02-18T14:33:12.176Z,10.67
2019-02-18T14:35:45.689Z,10.10
2019-02-18T14:38:19.184Z,10.80
2019-02-18T14:40:52.753Z,10.70
2019-02-18T14:43:26.232Z,11.67
2019-02-18T14:45:59.953Z,10.57
2019-02-18T14:48:33.420Z,10.97
2019-02-18T14:51:06.932Z,10.77
2019-02-18T14:53:40.352Z,10.87
2019-02-18T14:56:15.458Z,11.03
2019-02-18T14:58:48.957Z,11.30
2019-02-18T15:01:22.422Z,10.83
2019-02-18T15:03:55.916Z,11.03
2019-02-18T15:06:29.379Z,10.93
2019-02-18T15:09:03.276Z,11.13
2019-02-18T15:11:36.730Z,10.93
2019-02-18T15:14:10.220Z,11.67
2019-02-18T15:16:43.765Z,11.67
2019-02-18T15:19:17.673Z,11.93
2019-02-18T15:21:51.129Z,12.50
2019-02-18T15:24:24.640Z,12.53
2019-02-18T15:26:58.152Z,11.57
2019-02-18T15:29:31.589Z,11.83
2019-02-18T15:32:05.163Z,11.73
2019-02-18T15:34:38.669Z,12.50
2019-02-18T15:37:12.570Z,11.93
2019-02-18T15:39:46.005Z,11.90
2019-02-18T15:42:19.445Z,13.00
2019-02-18T15:44:52.949Z,13.27
2019-02-18T15:47:28.017Z,12.93
2019-02-18T15:50:01.446Z,12.57
2019-02-18T15:52:35.484Z,14.77
2019-02-18T15:55:10.154Z,13.87
2019-02-18T15:57:43.675Z,15.77
2019-02-18T16:00:25.737Z,15.37
2019-02-18T16:02:59.184Z,14.73
2019-02-18T16:05:32.688Z,16.10
2019-02-18T16:08:06.138Z,15.83
2019-02-18T16:10:39.570Z,16.80
2019-02-18T16:13:13.615Z,16.03
2019-02-18T16:15:47.126Z,16.10
2019-02-18T16:18:20.577Z,16.23
2019-02-18T16:20:54.013Z,17.37
2019-02-18T16:23:27.456Z,17.50
2019-02-18T16:26:00.892Z,20.13
2019-02-18T16:28:34.409Z,18.03
2019-02-18T16:31:07.842Z,19.20
2019-02-18T16:33:41.365Z,24.87
2019-02-18T16:36:14.809Z,24.37
2019-02-18T16:38:48.318Z,24.73
2019-02-18T16:41:21.827Z,24.07
2019-02-18T16:43:55.371Z,19.87
2019-02-18T16:46:29.389Z,18.33
2019-02-18T16:49:03.342Z,19.20
2019-02-18T16:51:36.849Z,18.83
2019-02-18T16:54:10.340Z,18.27
2019-02-18T16:56:43.800Z,18.27
2019-02-18T16:59:17.256Z,15.70
2019-02-18T17:01:53.653Z,17.43
2019-02-18T17:04:27.382Z,16.77
2019-02-18T17:07:01.192Z,17.10
2019-02-18T17:09:34.737Z,17.73
2019-02-18T17:12:08.173Z,15.87
2019-02-18T17:14:41.880Z,16.20
2019-02-18T17:17:15.613Z,15.27
2019-02-18T17:19:49.596Z,16.50
2019-02-18T17:22:23.030Z,17.57
2019-02-18T17:24:56.569Z,15.70
2019-02-18T17:27:30.053Z,17.53
2019-02-18T17:30:03.897Z,16.73
2019-02-18T17:32:37.327Z,17.27
2019-02-18T17:35:15.051Z,17.20
2019-02-18T17:37:48.561Z,17.40
2019-02-18T17:40:22.021Z,20.33
2019-02-18T17:42:55.722Z,19.53
2019-02-18T17:45:29.516Z,18.50
2019-02-18T17:48:02.977Z,17.83
2019-02-18T17:50:36.494Z,19.67
2019-02-18T17:53:10.312Z,19.47
2019-02-18T17:55:43.771Z,17.70
2019-02-18T17:58:17.321Z,17.53
2019-02-18T18:00:52.452Z,19.03
2019-02-18T18:03:25.966Z,18.13
2019-02-18T18:05:59.410Z,17.40
2019-02-18T18:08:32.913Z,19.03
2019-02-18T18:11:06.458Z,19.90
2019-02-18T18:13:39.986Z,17.87
2019-02-18T18:16:13.420Z,17.73
2019-02-18T18:18:46.860Z,16.30
2019-02-18T18:21:20.302Z,16.63
2019-02-18T18:23:53.727Z,18.47
2019-02-18T18:26:27.813Z,19.37
2019-02-18T18:29:01.263Z,18.30
2019-02-18T18:31:34.710Z,19.00
2019-02-18T18:34:08.157Z,18.97
2019-02-18T18:36:41.671Z,19.33
2019-02-18T18:39:15.107Z,18.40
2019-02-18T18:41:48.637Z,19.23
2019-02-18T18:44:22.069Z,18.77
2019-02-18T18:46:55.523Z,19.03
2019-02-18T18:49:28.949Z,18.43
2019-02-18T18:52:02.400Z,19.63
2019-02-18T18:54:35.834Z,18.90
2019-02-18T18:57:09.297Z,18.47
2019-02-18T18:59:43.410Z,19.00
2019-02-18T19:02:16.857Z,20.10
2019-02-18T19:04:50.297Z,19.77
2019-02-18T19:07:23.752Z,19.87
2019-02-18T19:09:57.765Z,20.03
2019-02-18T19:12:31.270Z,20.60
2019-02-18T19:15:07.125Z,22.67
2019-02-18T19:17:40.575Z,21.90
2019-02-18T19:20:14.304Z,21.27
2019-02-18T19:22:47.765Z,21.07
2019-02-18T19:25:21.193Z,21.17
2019-02-18T19:27:54.650Z,22.33
2019-02-18T19:30:30.799Z,22.77
2019-02-18T19:33:04.237Z,22.73
2019-02-18T19:35:37.665Z,21.13
2019-02-18T19:38:11.129Z,28.47
2019-02-18T19:40:44.626Z,28.33
2019-02-18T19:43:18.056Z,25.97
2019-02-18T19:45:51.497Z,30.67
2019-02-18T19:48:24.943Z,24.37
2019-02-18T19:50:58.369Z,29.53
2019-02-18T19:53:32.406Z,24.80
2019-02-18T19:56:05.829Z,28.37
2019-02-18T19:58:39.270Z,25.17
2019-02-18T20:01:12.697Z,29.10
2019-02-18T20:03:46.538Z,25.40
2019-02-18T20:06:19.969Z,22.37
2019-02-18T20:08:53.421Z,22.40
2019-02-18T20:11:26.862Z,22.47
2019-02-18T20:14:00.390Z,23.23
2019-02-18T20:16:33.815Z,28.50
2019-02-18T20:19:07.272Z,24.60
2019-02-18T20:21:40.696Z,28.27
2019-02-18T20:24:14.141Z,24.13
2019-02-18T20:26:47.946Z,23.40
2019-02-18T20:29:21.416Z,22.87
2019-02-18T20:31:54.858Z,23.23
2019-02-18T20:34:28.292Z,24.07
2019-02-18T20:37:02.395Z,24.37
2019-02-18T20:39:35.830Z,26.13
2019-02-18T20:42:09.275Z,26.10
2019-02-18T20:44:42.760Z,22.23
2019-02-18T20:47:16.208Z,23.03
2019-02-18T20:49:49.773Z,21.60
2019-02-18T20:52:23.270Z,20.57
2019-02-18T20:54:56.730Z,20.43
2019-02-18T20:57:30.187Z,20.00
2019-02-18T21:00:06.019Z,20.53
2019-02-18T21:02:39.439Z,19.60
2019-02-18T21:05:12.882Z,20.27
2019-02-18T21:07:46.377Z,21.83
2019-02-18T21:10:21.321Z,20.77
2019-02-18T21:12:54.748Z,20.17
2019-02-18T21:15:28.267Z,19.53
2019-02-18T21:18:01.755Z,21.80
2019-02-18T21:20:35.798Z,22.47
2019-02-18T21:23:09.305Z,21.03
2019-02-18T21:25:42.825Z,20.30
2019-02-18T21:28:16.254Z,19.70
2019-02-18T21:30:49.717Z,21.17
2019-02-18T21:33:23.216Z,21.77
2019-02-18T21:35:56.867Z,21.73
2019-02-18T21:38:30.287Z,20.87
2019-02-18T21:41:03.752Z,19.93
2019-02-18T21:43:37.172Z,20.63
2019-02-18T21:46:10.619Z,21.43
2019-02-18T21:48:44.043Z,21.60
2019-02-18T21:51:17.491Z,20.47
2019-02-18T21:53:51.296Z,19.27
2019-02-18T21:56:24.752Z,19.10
2019-02-18T21:58:58.172Z,19.93
2019-02-18T22:01:31.691Z,19.30
2019-02-18T22:04:05.180Z,19.60
2019-02-18T22:06:38.623Z,19.67
2019-02-18T22:09:12.049Z,21.27
2019-02-18T22:11:45.507Z,22.23
2019-02-18T22:14:18.998Z,21.60
2019-02-18T22:16:52.812Z,22.60
2019-02-18T22:19:26.250Z,22.70
2019-02-18T22:21:59.696Z,23.10
2019-02-18T22:24:33.198Z,21.83
2019-02-18T22:27:06.744Z,21.97
2019-02-18T22:29:40.165Z,22.17
2019-02-18T22:32:13.621Z,24.37
2019-02-18T22:34:47.039Z,21.37
2019-02-18T22:37:20.486Z,21.20
2019-02-18T22:39:54.283Z,21.93
2019-02-18T22:42:27.724Z,21.07
2019-02-18T22:45:01.166Z,20.67
2019-02-18T22:47:34.608Z,21.30
2019-02-18T22:50:10.491Z,21.13
2019-02-18T22:52:43.920Z,20.23
2019-02-18T22:55:17.339Z,21.87
2019-02-18T22:57:50.775Z,21.27
2019-02-18T23:00:28.922Z,21.60
2019-02-18T23:03:02.896Z,21.00
2019-02-18T23:05:36.318Z,21.13
2019-02-18T23:08:09.753Z,21.27
2019-02-18T23:10:43.181Z,21.90
2019-02-18T23:13:16.615Z,22.27
2019-02-18T23:15:50.056Z,22.60
2019-02-18T23:18:23.561Z,22.73
2019-02-18T23:20:56.993Z,21.27
2019-02-18T23:23:30.424Z,20.57
2019-02-18T23:26:04.337Z,20.47
2019-02-18T23:28:37.768Z,22.03
2019-02-18T23:31:11.197Z,21.53
2019-02-18T23:33:44.641Z,21.30
2019-02-18T23:36:18.061Z,21.17
2019-02-18T23:38:51.510Z,20.47
2019-02-18T23:41:26.048Z,20.07
2019-02-18T23:43:59.493Z,21.70
2019-02-18T23:46:32.930Z,21.13
2019-02-18T23:49:06.565Z,21.90
2019-02-18T23:51:40.003Z,20.93
2019-02-18T23:54:13.437Z,20.60
2019-02-18T23:56:46.860Z,20.53
2019-02-18T23:59:20.379Z,20.90
